Time;durP1;ratioP1;P1;durP2;ratioP2;P2;SDS_P1;SDS_P2;PMS_P1;PMS_P2;Temp;Humidity;BMP_temperature;BMP_pressure;BME280_temperature;BME280_humidity;BME280_pressure;Samples;Min_cycle;Max_cycle;Signal;HPM_P1;HPM_P2
2022/09/18 00:02:08;;;;;;;6.20;1.10;;;12.80;65.40;;;;;;5033028;28;20037;-65
2022/09/18 00:04:34;;;;;;;4.88;0.93;;;12.70;65.40;;;;;;5049787;28;20045;-66
2022/09/18 00:06:59;;;;;;;6.88;1.25;;;12.80;65.50;;;;;;5049709;28;20044;-65
2022/09/18 00:09:25;;;;;;;6.60;1.70;;;12.80;65.50;;;;;;5049435;28;20039;-65
2022/09/18 00:11:51;;;;;;;5.43;1.25;;;12.80;65.50;;;;;;5049980;28;20056;-65
2022/09/18 00:14:20;;;;;;;5.93;1.10;;;12.80;65.50;;;;;;5032969;28;20077;-66
2022/09/18 00:16:46;;;;;;;5.25;1.00;;;12.80;65.60;;;;;;5049573;28;20052;-65
2022/09/18 00:19:13;;;;;;;3.85;0.90;;;12.80;65.60;;;;;;5050087;28;20041;-65
2022/09/18 00:21:44;;;;;;;5.43;1.10;;;12.80;65.70;;;;;;5049749;28;20037;-66
2022/09/18 00:24:11;;;;;;;7.07;1.38;;;12.80;65.70;;;;;;5049257;28;20032;-67
2022/09/18 00:26:37;;;;;;;7.53;1.17;;;12.80;65.70;;;;;;5049743;28;20033;-66
2022/09/18 00:29:03;;;;;;;5.97;1.55;;;12.80;65.80;;;;;;5048913;28;20116;-65
2022/09/18 00:31:32;;;;;;;7.15;1.15;;;12.80;65.80;;;;;;5053797;28;20055;-67
2022/09/18 00:34:01;;;;;;;5.90;1.30;;;12.80;65.90;;;;;;5054086;28;20040;-68
2022/09/18 00:36:28;;;;;;;4.30;1.00;;;12.80;65.80;;;;;;5055139;28;20029;-66
2022/09/18 00:38:54;;;;;;;5.43;1.13;;;12.80;65.80;;;;;;5051184;28;20091;-68
2022/09/18 00:41:23;;;;;;;3.97;1.10;;;12.80;65.80;;;;;;5053763;28;20033;-68
2022/09/18 00:43:50;;;;;;;5.97;0.95;;;12.80;65.80;;;;;;5053729;28;20033;-68
2022/09/18 00:46:31;;;;;;;6.82;1.30;;;12.80;65.80;;;;;;5053568;28;20048;-68
2022/09/18 00:49:26;;;;;;;8.18;1.40;;;12.90;65.80;;;;;;5053841;28;20053;-68
2022/09/18 00:51:55;;;;;;;5.47;1.17;;;12.80;65.70;;;;;;5053170;28;20071;-68
2022/09/18 00:54:49;;;;;;;7.07;1.58;;;12.80;65.80;;;;;;5054615;28;20080;-68
2022/09/18 00:57:18;;;;;;;7.88;1.02;;;12.80;65.80;;;;;;5051657;28;20075;-68
2022/09/18 00:59:46;;;;;;;5.85;1.42;;;12.80;65.90;;;;;;5053387;28;20071;-68
2022/09/18 01:02:12;;;;;;;10.82;2.00;;;12.80;66.00;;;;;;5050861;28;20044;-68
2022/09/18 01:04:38;;;;;;;8.25;1.30;;;12.80;66.10;;;;;;5053147;28;20037;-68
2022/09/18 01:07:29;;;;;;;9.23;1.20;;;12.80;66.20;;;;;;5052780;28;20370;-68
2022/09/18 01:10:16;;;;;;;4.03;0.95;;;12.80;66.30;;;;;;5053131;28;20029;-68
2022/09/18 01:12:54;;;;;;;10.60;1.83;;;12.80;66.40;;;;;;5053257;28;20037;-68
2022/09/18 01:15:59;;;;;;;9.80;1.85;;;12.80;66.60;;;;;;5049889;28;20072;-68
2022/09/18 01:18:36;;;;;;;8.98;1.30;;;12.80;66.70;;;;;;5051684;28;20045;-68
2022/09/18 01:21:08;;;;;;;6.15;1.70;;;12.80;66.90;;;;;;5052997;28;20388;-68
2022/09/18 01:24:05;;;;;;;5.38;1.10;;;12.80;66.90;;;;;;5052645;28;20029;-68
2022/09/18 01:26:54;;;;;;;7.45;1.08;;;12.80;67.10;;;;;;5053001;28;20048;-68
2022/09/18 01:29:50;;;;;;;8.70;1.23;;;12.80;67.20;;;;;;5051762;28;20051;-68
2022/09/18 01:32:26;;;;;;;5.03;1.30;;;12.80;67.30;;;;;;5050526;28;20033;-68
2022/09/18 01:35:20;;;;;;;7.30;1.42;;;12.80;67.30;;;;;;5052579;28;20097;-68
2022/09/18 01:37:48;;;;;;;8.68;1.08;;;12.80;67.40;;;;;;5051950;28;20045;-68
2022/09/18 01:40:37;;;;;;;8.15;1.23;;;12.80;67.40;;;;;;5052251;28;20037;-68
2022/09/18 01:43:07;;;;;;;6.85;1.17;;;12.80;67.60;;;;;;5049847;28;20033;-68
2022/09/18 01:45:37;;;;;;;6.43;1.17;;;12.80;67.60;;;;;;5052506;28;20060;-68
2022/09/18 01:48:06;;;;;;;4.25;1.10;;;12.80;67.70;;;;;;5052385;28;20043;-68
2022/09/18 01:50:36;;;;;;;9.52;1.17;;;12.80;67.70;;;;;;5054013;28;20047;-68
2022/09/18 01:53:12;;;;;;;8.57;1.38;;;12.80;67.80;;;;;;5052474;28;20033;-68
2022/09/18 01:55:39;;;;;;;5.10;1.00;;;12.80;67.80;;;;;;5052226;28;20151;-68
2022/09/18 01:58:10;;;;;;;6.22;1.23;;;12.80;67.80;;;;;;5035631;28;20037;-68
2022/09/18 02:00:40;;;;;;;7.93;1.75;;;12.80;67.90;;;;;;5053052;28;20045;-68
2022/09/18 02:03:11;;;;;;;8.10;1.40;;;12.80;67.90;;;;;;5051512;28;20059;-68
2022/09/18 02:05:43;;;;;;;6.63;1.10;;;12.80;68.00;;;;;;5051835;28;20536;-68
2022/09/18 02:08:14;;;;;;;6.35;1.20;;;12.80;68.00;;;;;;5052141;28;20060;-68
2022/09/18 02:10:47;;;;;;;5.15;1.60;;;12.80;68.00;;;;;;5035459;28;20033;-68
2022/09/18 02:13:17;;;;;;;6.22;1.00;;;12.80;68.10;;;;;;5052323;28;20540;-68
2022/09/18 02:15:47;;;;;;;6.80;1.20;;;12.80;68.10;;;;;;5051952;28;20064;-68
2022/09/18 02:18:28;;;;;;;8.13;1.45;;;12.80;68.00;;;;;;5052177;28;20041;-69
2022/09/18 02:20:55;;;;;;;3.97;1.30;;;12.80;67.80;;;;;;5050387;28;20052;-68
2022/09/18 02:23:22;;;;;;;6.00;1.10;;;12.80;67.70;;;;;;5051274;28;20041;-68
2022/09/18 02:25:54;;;;;;;5.28;1.10;;;12.80;67.60;;;;;;5051929;28;20068;-68
2022/09/18 02:28:23;;;;;;;3.53;0.60;;;12.80;67.50;;;;;;5052484;28;20437;-68
2022/09/18 02:30:49;;;;;;;6.47;1.02;;;12.80;67.50;;;;;;5051656;28;20559;-69
2022/09/18 02:33:28;;;;;;;3.08;0.88;;;12.80;67.40;;;;;;5051557;28;20144;-68
2022/09/18 02:36:33;;;;;;;7.32;1.35;;;12.80;67.30;;;;;;5051520;28;20051;-68
2022/09/18 02:39:18;;;;;;;6.90;1.50;;;12.80;67.20;;;;;;5037351;28;20056;-68
2022/09/18 02:42:02;;;;;;;6.68;1.30;;;12.80;67.20;;;;;;5051642;28;20033;-68
2022/09/18 02:44:42;;;;;;;2.90;0.90;;;12.80;67.20;;;;;;5051478;28;20037;-68
2022/09/18 02:47:32;;;;;;;6.70;0.70;;;12.80;67.30;;;;;;5050735;28;20029;-68
2022/09/18 02:50:35;;;;;;;4.55;0.90;;;12.80;67.40;;;;;;5052882;28;20417;-68
2022/09/18 02:53:22;;;;;;;4.10;0.80;;;12.80;67.30;;;;;;5050964;28;20043;-68
2022/09/18 02:56:05;;;;;;;5.22;1.23;;;12.80;67.50;;;;;;5050060;28;20091;-68
2022/09/18 02:58:43;;;;;;;4.10;0.93;;;12.80;67.50;;;;;;5051069;28;20115;-68
2022/09/18 03:01:10;;;;;;;8.02;1.13;;;12.80;67.50;;;;;;5051124;28;20044;-68
2022/09/18 03:03:38;;;;;;;3.78;0.60;;;12.80;67.60;;;;;;5050995;28;20056;-68
2022/09/18 03:06:05;;;;;;;4.22;0.80;;;12.80;67.60;;;;;;5050150;28;20622;-68
2022/09/18 03:08:31;;;;;;;5.25;0.80;;;12.80;67.70;;;;;;5051180;28;20045;-68
2022/09/18 03:10:57;;;;;;;5.63;1.33;;;12.80;67.70;;;;;;5051068;28;20037;-68
2022/09/18 03:13:22;;;;;;;7.78;0.93;;;12.80;67.70;;;;;;5050796;28;20194;-68
2022/09/18 03:15:48;;;;;;;4.25;0.75;;;12.80;67.70;;;;;;5050538;28;20052;-68
2022/09/18 03:18:14;;;;;;;3.63;0.90;;;12.80;67.70;;;;;;5050896;28;20041;-68
2022/09/18 03:20:42;;;;;;;3.17;0.60;;;12.80;67.70;;;;;;5050950;28;20076;-68
2022/09/18 03:23:09;;;;;;;4.68;1.00;;;12.80;67.60;;;;;;5050982;28;20041;-68
2022/09/18 03:25:34;;;;;;;3.63;0.93;;;12.80;67.60;;;;;;5033917;28;20468;-69
2022/09/18 03:28:00;;;;;;;3.10;0.60;;;12.80;68.00;;;;;;5049252;28;20125;-68
2022/09/18 03:30:26;;;;;;;3.63;0.63;;;12.80;67.60;;;;;;5050858;28;20439;-68
2022/09/18 03:32:52;;;;;;;2.47;0.55;;;12.80;67.60;;;;;;5050965;28;20073;-68
2022/09/18 03:35:18;;;;;;;5.18;0.80;;;12.80;67.50;;;;;;5050558;28;20048;-68
2022/09/18 03:37:44;;;;;;;7.03;1.25;;;12.90;67.60;;;;;;5050139;28;20119;-68
2022/09/18 03:40:10;;;;;;;3.67;0.60;;;12.90;67.50;;;;;;5050766;28;20075;-68
2022/09/18 03:42:36;;;;;;;4.00;0.95;;;12.90;67.50;;;;;;5050819;28;20029;-68
2022/09/18 03:45:03;;;;;;;2.38;0.60;;;12.90;67.40;;;;;;5050052;28;20108;-68
2022/09/18 03:47:28;;;;;;;4.00;0.80;;;12.90;67.30;;;;;;5033676;28;20497;-68
2022/09/18 03:49:54;;;;;;;2.38;0.63;;;12.90;67.30;;;;;;5050567;28;20039;-68
2022/09/18 03:52:20;;;;;;;5.15;0.93;;;12.90;67.30;;;;;;5050520;28;20155;-68
2022/09/18 03:54:45;;;;;;;3.25;0.90;;;12.90;67.20;;;;;;5050563;28;20039;-68
2022/09/18 03:57:11;;;;;;;4.68;1.15;;;12.90;67.10;;;;;;5050625;28;20036;-68
2022/09/18 03:59:37;;;;;;;4.80;0.98;;;12.90;67.10;;;;;;5050163;28;20077;-68
2022/09/18 04:02:02;;;;;;;3.75;0.70;;;12.90;67.00;;;;;;5050253;28;20036;-68
2022/09/18 04:04:28;;;;;;;4.40;1.10;;;12.90;67.10;;;;;;5050246;28;20472;-68
2022/09/18 04:06:54;;;;;;;2.67;0.90;;;12.90;67.10;;;;;;5050077;28;20053;-68
2022/09/18 04:09:20;;;;;;;5.18;1.00;;;13.00;67.10;;;;;;5050199;28;20064;-68
2022/09/18 04:11:45;;;;;;;5.63;1.25;;;13.00;67.10;;;;;;5050184;28;20045;-68
2022/09/18 04:14:11;;;;;;;3.35;0.77;;;13.00;67.10;;;;;;5050314;28;20041;-68
2022/09/18 04:16:37;;;;;;;2.38;0.40;;;13.00;67.10;;;;;;5049682;28;20060;-68
2022/09/18 04:19:02;;;;;;;6.72;0.90;;;13.00;67.00;;;;;;5050120;28;20076;-68
2022/09/18 04:21:28;;;;;;;4.25;0.57;;;13.00;67.00;;;;;;5050562;28;20044;-68
2022/09/18 04:23:55;;;;;;;6.32;0.90;;;13.00;67.00;;;;;;5034501;28;20087;-68
2022/09/18 04:26:21;;;;;;;5.15;0.60;;;13.00;67.00;;;;;;5051268;28;20033;-68
2022/09/18 04:28:47;;;;;;;2.22;0.70;;;13.00;67.00;;;;;;5051288;28;20071;-68
2022/09/18 04:31:13;;;;;;;3.67;0.57;;;13.00;67.00;;;;;;5051375;28;20048;-68
2022/09/18 04:33:38;;;;;;;5.07;0.70;;;13.00;67.00;;;;;;5034597;28;20055;-68
2022/09/18 04:36:04;;;;;;;2.85;0.60;;;13.00;67.10;;;;;;5050838;28;20116;-68
2022/09/18 04:38:30;;;;;;;3.50;0.70;;;13.00;67.20;;;;;;5051206;28;20041;-68
2022/09/18 04:40:56;;;;;;;3.53;0.68;;;13.00;67.10;;;;;;5051529;28;20044;-68
2022/09/18 04:43:23;;;;;;;4.60;1.13;;;13.00;67.00;;;;;;5051033;28;20127;-66
2022/09/18 04:45:49;;;;;;;2.60;0.60;;;13.00;67.00;;;;;;5050336;28;20126;-67
2022/09/18 04:48:18;;;;;;;3.33;0.80;;;13.00;67.00;;;;;;5050854;28;20549;-66
2022/09/18 04:50:45;;;;;;;5.75;0.80;;;13.00;67.00;;;;;;5051215;28;20540;-66
2022/09/18 04:53:11;;;;;;;3.90;0.80;;;13.10;67.20;;;;;;5050946;28;20040;-66
2022/09/18 04:55:38;;;;;;;4.50;0.60;;;13.00;67.20;;;;;;5050552;28;20041;-66
2022/09/18 04:58:04;;;;;;;2.55;0.60;;;13.10;67.20;;;;;;5050563;28;20116;-66
2022/09/18 05:00:30;;;;;;;5.57;0.93;;;13.10;67.20;;;;;;5050624;28;20040;-66
2022/09/18 05:02:56;;;;;;;3.72;1.05;;;13.10;67.30;;;;;;5050777;28;20068;-66
2022/09/18 05:05:22;;;;;;;2.08;0.75;;;13.10;67.40;;;;;;5050641;28;20499;-66
2022/09/18 05:07:48;;;;;;;4.28;0.68;;;13.10;67.40;;;;;;5050911;28;20071;-66
2022/09/18 05:10:14;;;;;;;4.25;1.02;;;13.10;67.40;;;;;;5051169;28;20489;-66
2022/09/18 05:12:40;;;;;;;5.10;0.80;;;13.10;67.50;;;;;;5050569;28;20041;-66
2022/09/18 05:15:06;;;;;;;2.63;0.60;;;13.10;67.60;;;;;;5033683;28;20045;-66
2022/09/18 05:17:32;;;;;;;4.03;0.60;;;13.10;67.70;;;;;;5053643;28;20091;-66
2022/09/18 05:19:58;;;;;;;3.60;0.70;;;13.00;67.60;;;;;;5053958;28;20053;-66
2022/09/18 05:22:24;;;;;;;3.03;0.80;;;13.00;67.60;;;;;;5037753;28;20128;-66
2022/09/18 05:24:49;;;;;;;4.32;0.75;;;13.00;67.50;;;;;;5054349;28;20037;-66
2022/09/18 05:27:15;;;;;;;3.92;0.77;;;13.00;67.60;;;;;;5054153;28;20041;-66
2022/09/18 05:29:41;;;;;;;1.27;0.45;;;13.00;67.60;;;;;;5054055;28;20098;-68
2022/09/18 05:32:07;;;;;;;3.65;0.88;;;13.00;67.70;;;;;;5054145;28;20041;-68
2022/09/18 05:34:32;;;;;;;2.42;0.52;;;13.00;67.70;;;;;;5037433;28;20095;-68
2022/09/18 05:36:58;;;;;;;2.38;0.50;;;13.00;67.80;;;;;;5053413;28;20085;-68
2022/09/18 05:39:24;;;;;;;3.60;0.70;;;13.00;67.70;;;;;;5037215;28;20040;-68
2022/09/18 05:41:50;;;;;;;3.47;0.68;;;12.90;67.70;;;;;;5037553;28;20077;-68
2022/09/18 05:44:17;;;;;;;2.03;0.40;;;13.00;67.70;;;;;;5036906;28;20037;-66
2022/09/18 05:46:42;;;;;;;2.38;0.70;;;13.00;67.80;;;;;;5053864;28;20068;-67
2022/09/18 05:49:08;;;;;;;3.30;0.52;;;13.00;67.70;;;;;;5053790;28;20083;-68
2022/09/18 05:51:33;;;;;;;5.07;0.60;;;13.00;67.70;;;;;;5053687;28;20052;-68
2022/09/18 05:53:59;;;;;;;2.78;0.82;;;13.00;67.70;;;;;;5053122;28;20041;-68
2022/09/18 05:56:26;;;;;;;3.95;0.68;;;12.90;67.60;;;;;;5053546;28;20040;-67
2022/09/18 05:58:53;;;;;;;2.95;0.60;;;13.00;67.70;;;;;;5036960;28;20041;-67
2022/09/18 06:01:18;;;;;;;3.67;0.63;;;13.00;67.80;;;;;;5053276;28;20048;-67
2022/09/18 06:03:44;;;;;;;3.83;0.70;;;13.00;68.40;;;;;;5053332;28;20045;-67
2022/09/18 06:06:09;;;;;;;1.95;0.52;;;12.90;67.90;;;;;;5053793;28;20068;-68
2022/09/18 06:08:35;;;;;;;5.47;1.02;;;12.90;68.00;;;;;;5052970;28;20480;-68
2022/09/18 06:11:01;;;;;;;2.70;0.68;;;12.90;68.10;;;;;;5053445;28;20051;-68
2022/09/18 06:13:27;;;;;;;3.30;0.50;;;12.90;68.10;;;;;;5052243;28;20120;-68
2022/09/18 06:15:53;;;;;;;3.78;0.57;;;12.90;68.10;;;;;;5053017;28;20137;-68
2022/09/18 06:18:19;;;;;;;4.95;1.02;;;12.90;68.20;;;;;;5053470;28;20056;-68
2022/09/18 06:20:53;;;;;;;5.93;1.25;;;12.90;68.30;;;;;;5053223;28;20037;-69
2022/09/18 06:23:18;;;;;;;2.63;0.52;;;12.90;68.30;;;;;;5043690;28;20492;-69
2022/09/18 06:25:44;;;;;;;7.63;0.93;;;12.90;68.40;;;;;;5052906;28;20072;-69
2022/09/18 06:28:10;;;;;;;5.13;0.70;;;12.90;68.50;;;;;;5052048;28;20037;-69
2022/09/18 06:30:36;;;;;;;3.85;0.70;;;12.90;68.50;;;;;;5052966;28;20052;-69
2022/09/18 06:33:05;;;;;;;3.17;0.90;;;12.90;69.00;;;;;;5053679;28;20064;-68
2022/09/18 06:35:34;;;;;;;4.20;0.70;;;12.90;68.60;;;;;;5052891;28;20028;-68
2022/09/18 06:38:05;;;;;;;2.75;0.63;;;12.90;68.60;;;;;;5052815;28;20049;-67
2022/09/18 06:40:32;;;;;;;4.05;0.75;;;12.90;68.70;;;;;;5053049;28;20377;-67
2022/09/18 06:43:00;;;;;;;3.03;0.60;;;12.90;68.70;;;;;;5052433;28;20036;-68
2022/09/18 06:45:27;;;;;;;3.50;0.63;;;12.90;68.70;;;;;;5052763;28;20044;-69
2022/09/18 06:47:54;;;;;;;6.00;0.98;;;12.90;68.80;;;;;;5052905;28;20456;-69
2022/09/18 06:50:24;;;;;;;5.10;1.10;;;12.90;69.20;;;;;;5053088;28;20373;-69
2022/09/18 06:52:50;;;;;;;3.00;0.85;;;12.90;68.90;;;;;;5052167;28;20103;-70
2022/09/18 06:55:17;;;;;;;3.40;1.05;;;12.90;69.00;;;;;;5052282;28;20504;-69
2022/09/18 06:57:51;;;;;;;3.78;0.82;;;13.00;69.00;;;;;;5052504;28;20072;-69
2022/09/18 07:00:17;;;;;;;5.15;0.90;;;12.90;69.00;;;;;;5036812;28;20128;-69
2022/09/18 07:02:42;;;;;;;4.32;0.75;;;13.00;69.10;;;;;;5052517;28;20139;-68
2022/09/18 07:05:08;;;;;;;2.60;0.70;;;13.00;69.10;;;;;;5052141;28;20116;-69
2022/09/18 07:07:34;;;;;;;3.05;0.90;;;13.00;69.00;;;;;;5052147;28;20447;-69
2022/09/18 07:09:59;;;;;;;5.60;1.10;;;13.00;69.00;;;;;;5052180;28;20449;-69
2022/09/18 07:12:28;;;;;;;3.85;0.80;;;13.00;69.10;;;;;;5035714;28;20098;-69
2022/09/18 07:14:53;;;;;;;3.30;0.70;;;13.00;69.00;;;;;;5052223;28;20404;-69
2022/09/18 07:17:19;;;;;;;6.55;1.10;;;13.00;69.00;;;;;;5051657;28;20053;-68
2022/09/18 07:19:45;;;;;;;5.53;0.90;;;13.00;69.00;;;;;;5052009;28;20492;-68
2022/09/18 07:22:11;;;;;;;4.22;0.80;;;13.10;69.10;;;;;;5051660;28;20043;-68
2022/09/18 07:24:36;;;;;;;4.40;0.82;;;13.10;69.10;;;;;;5051377;28;20102;-68
2022/09/18 07:27:02;;;;;;;2.08;0.73;;;13.10;69.10;;;;;;5051811;28;20443;-68
2022/09/18 07:29:28;;;;;;;4.05;0.73;;;13.10;69.00;;;;;;5034156;28;20522;-68
2022/09/18 07:31:53;;;;;;;4.22;0.85;;;13.10;68.90;;;;;;5051196;28;20045;-68
2022/09/18 07:34:19;;;;;;;5.13;1.77;;;13.10;68.90;;;;;;5034845;28;20171;-68
2022/09/18 07:36:48;;;;;;;3.15;0.82;;;13.10;68.90;;;;;;5052067;28;20083;-68
2022/09/18 07:39:14;;;;;;;5.28;0.90;;;13.10;68.90;;;;;;5051179;28;20132;-68
2022/09/18 07:41:39;;;;;;;4.68;0.77;;;13.20;69.30;;;;;;5051393;28;20068;-68
2022/09/18 07:44:05;;;;;;;3.67;0.88;;;13.10;68.90;;;;;;5051616;28;20033;-68
2022/09/18 07:46:31;;;;;;;5.95;1.00;;;13.20;69.10;;;;;;5051760;28;20037;-68
2022/09/18 07:48:56;;;;;;;5.05;0.82;;;13.20;69.10;;;;;;5051713;28;20374;-68
2022/09/18 07:51:22;;;;;;;5.13;1.33;;;13.20;69.10;;;;;;5051479;28;20404;-68
2022/09/18 07:53:48;;;;;;;5.07;0.75;;;13.20;68.90;;;;;;5050549;28;20086;-68
2022/09/18 07:56:14;;;;;;;3.72;0.65;;;13.20;68.80;;;;;;5051016;28;20119;-68
2022/09/18 07:58:40;;;;;;;6.15;0.90;;;13.20;68.60;;;;;;5051388;28;20040;-68
2022/09/18 08:01:05;;;;;;;2.63;0.60;;;13.20;68.40;;;;;;5051255;28;20036;-68
2022/09/18 08:03:31;;;;;;;5.55;0.77;;;13.20;68.30;;;;;;5050962;28;20033;-68
2022/09/18 08:05:57;;;;;;;4.63;0.88;;;13.20;68.20;;;;;;5051027;28;20479;-68
2022/09/18 08:08:23;;;;;;;1.55;0.40;;;13.20;68.20;;;;;;5050006;28;20520;-68
2022/09/18 08:10:49;;;;;;;4.53;0.70;;;13.20;68.20;;;;;;5033999;28;20542;-68
2022/09/18 08:13:15;;;;;;;4.78;0.60;;;13.20;68.30;;;;;;5034400;28;20048;-68
2022/09/18 08:15:42;;;;;;;2.97;0.75;;;13.10;68.30;;;;;;5050988;28;20061;-68
2022/09/18 08:18:10;;;;;;;3.80;0.90;;;13.20;68.40;;;;;;5050768;28;20087;-67
2022/09/18 08:20:36;;;;;;;6.45;1.15;;;13.20;68.40;;;;;;5051186;28;20048;-67
2022/09/18 08:23:04;;;;;;;4.40;0.60;;;13.20;68.50;;;;;;5051175;28;20107;-67
2022/09/18 08:25:30;;;;;;;1.60;0.40;;;13.20;68.60;;;;;;5050450;28;20071;-67
2022/09/18 08:28:03;;;;;;;2.97;0.65;;;13.20;68.60;;;;;;5050789;28;20068;-67
2022/09/18 08:30:30;;;;;;;1.95;0.65;;;13.20;68.60;;;;;;5067796;28;20045;-67
2022/09/18 08:33:04;;;;;;;2.95;0.57;;;13.20;68.60;;;;;;5050787;28;20492;-67
2022/09/18 08:35:30;;;;;;;2.55;0.50;;;13.20;68.70;;;;;;5051252;28;20047;-65
2022/09/18 08:37:57;;;;;;;2.55;0.50;;;13.20;68.70;;;;;;5051076;28;20392;-65
2022/09/18 08:40:41;;;;;;;3.15;0.57;;;13.20;68.70;;;;;;5050506;28;20037;-65
2022/09/18 08:43:28;;;;;;;2.58;0.55;;;13.20;68.70;;;;;;5051081;28;20036;-65
2022/09/18 08:46:04;;;;;;;2.22;0.47;;;13.20;68.70;;;;;;5035353;28;20063;-65
2022/09/18 08:48:38;;;;;;;3.33;0.60;;;13.20;68.80;;;;;;5050669;28;20477;-65
2022/09/18 08:51:10;;;;;;;;;;;13.20;68.80;;;;;;5052477;28;20094;-65
2022/09/18 08:53:42;;;;;;;0.88;0.40;;;13.10;68.50;;;;;;5037781;28;19979;-65
2022/09/18 08:56:23;;;;;;;1.55;0.43;;;13.20;68.90;;;;;;5054170;28;20041;-65
2022/09/18 08:59:04;;;;;;;3.20;0.85;;;13.20;68.90;;;;;;5053935;28;20063;-65
2022/09/18 09:01:39;;;;;;;3.97;0.50;;;13.20;68.90;;;;;;5054759;28;20060;-65
2022/09/18 09:04:09;;;;;;;2.00;0.47;;;13.20;69.00;;;;;;5053500;28;20040;-65
2022/09/18 09:06:34;;;;;;;5.43;0.80;;;13.30;68.90;;;;;;5054416;28;20060;-65
2022/09/18 09:09:15;;;;;;;2.50;0.52;;;13.30;68.80;;;;;;5054553;28;20119;-65
2022/09/18 09:12:07;;;;;;;2.70;0.68;;;13.30;68.80;;;;;;5054313;28;20496;-65
2022/09/18 09:14:54;;;;;;;3.60;0.70;;;13.30;69.30;;;;;;5053582;28;20476;-65
2022/09/18 09:17:45;;;;;;;2.35;0.40;;;13.30;69.00;;;;;;5053187;28;20067;-65
2022/09/18 09:20:34;;;;;;;4.50;0.90;;;13.30;69.00;;;;;;5067209;28;20053;-65
2022/09/18 09:23:03;;;;;;;4.60;0.75;;;13.40;69.00;;;;;;5069062;28;20050;-65
2022/09/18 09:25:33;;;;;;;4.88;0.50;;;13.40;69.10;;;;;;5069440;28;20106;-65
2022/09/18 09:28:22;;;;;;;5.00;0.60;;;13.40;69.20;;;;;;5068768;28;20045;-65
2022/09/18 09:30:53;;;;;;;2.92;0.50;;;13.40;69.50;;;;;;5065717;28;20056;-65
2022/09/18 09:33:38;;;;;;;2.55;0.65;;;13.40;69.60;;;;;;5070262;28;20044;-65
2022/09/18 09:36:13;;;;;;;4.28;1.02;;;13.40;69.80;;;;;;5053300;28;20361;-65
2022/09/18 09:38:57;;;;;;;3.80;0.93;;;13.40;69.80;;;;;;5068002;28;20036;-65
2022/09/18 09:41:40;;;;;;;2.17;0.55;;;13.40;69.80;;;;;;5070016;28;20060;-65
2022/09/18 09:44:24;;;;;;;3.17;0.80;;;13.40;69.90;;;;;;5068384;28;20039;-66
2022/09/18 09:47:12;;;;;;;6.77;1.00;;;13.50;70.10;;;;;;5065353;28;20043;-65
2022/09/18 09:49:46;;;;;;;1.85;0.60;;;13.50;70.10;;;;;;5059379;28;20288;-65
2022/09/18 09:52:20;;;;;;;4.50;0.80;;;13.50;70.20;;;;;;5051970;28;20611;-67
2022/09/18 09:55:07;;;;;;;4.20;0.65;;;13.50;70.30;;;;;;5050870;28;20060;-66
2022/09/18 09:57:33;;;;;;;4.97;0.80;;;13.50;70.30;;;;;;5055799;28;20050;-66
2022/09/18 10:00:13;;;;;;;6.80;1.33;;;13.60;70.50;;;;;;5053150;28;20499;-66
2022/09/18 10:02:57;;;;;;;3.95;0.65;;;13.60;71.10;;;;;;5036839;28;20049;-66
2022/09/18 10:05:50;;;;;;;6.05;1.40;;;13.60;70.60;;;;;;5036030;28;20044;-66
2022/09/18 10:08:26;;;;;;;3.85;1.02;;;13.60;70.50;;;;;;5053265;28;20530;-66
2022/09/18 10:11:00;;;;;;;5.13;1.02;;;13.60;70.60;;;;;;5053053;28;20212;-67
2022/09/18 10:13:38;;;;;;;6.10;1.30;;;13.60;70.60;;;;;;5052251;28;20526;-67
2022/09/18 10:16:18;;;;;;;5.90;1.02;;;13.60;70.70;;;;;;5052217;28;20080;-68
2022/09/18 10:18:48;;;;;;;6.07;1.27;;;13.60;70.80;;;;;;5052231;28;20063;-67
2022/09/18 10:21:18;;;;;;;5.72;1.30;;;13.60;70.90;;;;;;5052385;28;20040;-67
2022/09/18 10:24:21;;;;;;;4.65;1.13;;;13.60;70.90;;;;;;5052200;28;20033;-67
2022/09/18 10:26:56;;;;;;;4.25;1.02;;;13.60;70.90;;;;;;5051788;28;20086;-67
2022/09/18 10:29:21;;;;;;;;;;;13.60;71.00;;;;;;5052476;28;20116;-67
2022/09/18 10:31:55;;;;;;;7.30;0.90;;;13.60;70.60;;;;;;5052735;28;20395;-67
2022/09/18 10:34:33;;;;;;;5.90;1.25;;;13.60;70.80;;;;;;5052899;28;20382;-68
2022/09/18 10:36:59;;;;;;;7.55;1.77;;;13.60;70.90;;;;;;5052494;28;20423;-67
2022/09/18 10:39:30;;;;;;;5.40;1.08;;;13.50;70.90;;;;;;5052333;28;20049;-68
2022/09/18 10:41:58;;;;;;;7.13;1.20;;;13.60;71.00;;;;;;5036007;28;20060;-67
2022/09/18 10:44:27;;;;;;;5.68;1.48;;;13.50;70.80;;;;;;5052192;28;20059;-67
2022/09/18 10:47:19;;;;;;;4.45;1.05;;;13.50;70.70;;;;;;5053027;28;20123;-68
2022/09/18 10:49:52;;;;;;;5.55;1.85;;;13.50;70.70;;;;;;5064755;28;20136;-68
2022/09/18 10:52:37;;;;;;;4.80;1.00;;;13.50;70.60;;;;;;5065871;28;20052;-68
2022/09/18 10:55:08;;;;;;;4.22;0.95;;;13.40;70.10;;;;;;5063499;28;20595;-67
2022/09/18 10:57:43;;;;;;;4.93;0.95;;;13.40;70.20;;;;;;5066275;28;20105;-67
2022/09/18 11:00:12;;;;;;;4.47;1.05;;;13.30;70.40;;;;;;5067000;28;20040;-68
2022/09/18 11:02:43;;;;;;;4.95;0.90;;;13.30;70.60;;;;;;5067540;28;20036;-68
2022/09/18 11:05:17;;;;;;;3.97;1.15;;;13.30;70.80;;;;;;5066883;28;20048;-68
2022/09/18 11:07:48;;;;;;;5.20;1.15;;;13.30;71.00;;;;;;5065668;28;20305;-68
2022/09/18 11:10:20;;;;;;;6.20;1.02;;;13.30;71.10;;;;;;5063833;28;20078;-67
2022/09/18 11:12:57;;;;;;;8.25;1.23;;;13.30;71.20;;;;;;5066625;28;20041;-67
2022/09/18 11:15:29;;;;;;;3.95;0.85;;;13.30;71.40;;;;;;5064911;28;20048;-67
2022/09/18 11:17:57;;;;;;;7.22;1.75;;;13.30;71.50;;;;;;5064520;28;20055;-68
2022/09/18 11:20:33;;;;;;;3.15;0.85;;;13.30;71.60;;;;;;5065573;28;20131;-67
2022/09/18 11:23:20;;;;;;;6.22;1.10;;;13.40;71.70;;;;;;5063794;28;20033;-67
2022/09/18 11:25:46;;;;;;;5.13;0.95;;;13.40;71.80;;;;;;5062621;28;20032;-68
2022/09/18 11:28:31;;;;;;;6.20;0.95;;;13.40;71.80;;;;;;5063217;28;20033;-67
2022/09/18 11:31:18;;;;;;;4.95;1.23;;;13.50;71.70;;;;;;5065214;28;20084;-67
2022/09/18 11:33:47;;;;;;;6.38;1.55;;;13.50;71.70;;;;;;5066900;28;20044;-67
2022/09/18 11:36:21;;;;;;;7.18;1.40;;;13.50;71.80;;;;;;5064778;28;20041;-68
2022/09/18 11:38:47;;;;;;;8.30;1.25;;;13.50;71.90;;;;;;5066048;28;20033;-68
2022/09/18 11:41:24;;;;;;;6.78;1.55;;;13.50;72.00;;;;;;5067383;28;20468;-68
2022/09/18 11:44:20;;;;;;;6.00;1.55;;;13.60;72.00;;;;;;5062417;28;20380;-68
2022/09/18 11:47:05;;;;;;;5.70;0.85;;;13.60;71.90;;;;;;5063905;28;20067;-68
2022/09/18 11:49:57;;;;;;;4.63;1.15;;;13.70;72.30;;;;;;5063041;28;20506;-68
2022/09/18 11:52:35;;;;;;;5.20;1.20;;;13.70;71.70;;;;;;5043473;28;20045;-68
2022/09/18 11:55:23;;;;;;;6.65;0.85;;;13.70;71.60;;;;;;5061069;28;20127;-69
2022/09/18 11:57:54;;;;;;;5.07;0.85;;;13.70;71.40;;;;;;5064877;28;20075;-71
2022/09/18 12:00:22;;;;;;;5.15;1.23;;;13.70;71.40;;;;;;5060865;28;20183;-70
2022/09/18 12:03:05;;;;;;;11.60;8.95;;;13.70;71.40;;;;;;5065370;28;20055;-70
2022/09/18 12:05:37;;;;;;;7.47;3.83;;;13.80;71.40;;;;;;5062554;28;20391;-70
2022/09/18 12:08:15;;;;;;;9.75;2.30;;;13.80;71.40;;;;;;5063554;28;20036;-69
2022/09/18 12:11:13;;;;;;;6.43;2.00;;;13.90;71.50;;;;;;5065475;28;20086;-69
2022/09/18 12:14:03;;;;;;;8.15;1.80;;;13.90;71.50;;;;;;5066308;28;20040;-69
2022/09/18 12:16:34;;;;;;;4.25;1.08;;;13.90;71.50;;;;;;5063438;28;20048;-70
2022/09/18 12:19:23;;;;;;;6.25;2.25;;;13.90;71.60;;;;;;5064048;28;20495;-69
2022/09/18 12:21:59;;;;;;;5.43;1.20;;;13.90;71.50;;;;;;5066080;28;20503;-70
2022/09/18 12:24:25;;;;;;;10.13;1.30;;;13.90;71.50;;;;;;5064814;28;20032;-69
2022/09/18 12:26:59;;;;;;;6.20;1.25;;;13.90;71.50;;;;;;5035337;28;20032;-70
2022/09/18 12:29:55;;;;;;;4.70;1.10;;;13.90;71.70;;;;;;5068008;28;20037;-69
2022/09/18 12:32:48;;;;;;;8.13;1.60;;;14.00;72.00;;;;;;5068955;28;20037;-69
2022/09/18 12:35:32;;;;;;;9.33;1.93;;;14.00;72.00;;;;;;5068971;28;20052;-69
2022/09/18 12:38:04;;;;;;;7.38;1.58;;;14.00;72.00;;;;;;5070043;28;20052;-70
2022/09/18 12:41:04;;;;;;;3.47;0.73;;;14.00;71.70;;;;;;5066022;28;20545;-69
2022/09/18 12:43:42;;;;;;;3.13;0.70;;;14.00;70.40;;;;;;5058084;28;20518;-70
2022/09/18 12:46:28;;;;;;;2.78;0.73;;;14.00;70.10;;;;;;5060055;28;20094;-70
2022/09/18 12:48:57;;;;;;;3.25;0.80;;;13.90;69.20;;;;;;5064746;28;20133;-70
2022/09/18 12:51:47;;;;;;;4.47;0.57;;;13.90;68.70;;;;;;5063495;28;20044;-70
2022/09/18 12:54:50;;;;;;;2.10;0.50;;;13.80;68.20;;;;;;5062690;28;20408;-70
2022/09/18 12:57:29;;;;;;;4.03;0.80;;;13.90;68.70;;;;;;5063838;28;20045;-70
2022/09/18 13:00:07;;;;;;;3.75;1.48;;;13.80;69.10;;;;;;5063481;28;20045;-69
2022/09/18 13:02:52;;;;;;;4.32;1.20;;;13.80;69.50;;;;;;5065283;28;20048;-69
2022/09/18 13:05:35;;;;;;;5.47;1.02;;;13.90;69.80;;;;;;5060784;28;20041;-69
2022/09/18 13:08:11;;;;;;;2.67;0.80;;;13.90;70.10;;;;;;5064485;28;20102;-69
2022/09/18 13:10:42;;;;;;;4.75;1.10;;;13.90;70.20;;;;;;5063452;28;20032;-70
2022/09/18 13:13:19;;;;;;;7.00;1.42;;;13.80;70.20;;;;;;5066032;28;20040;-70
2022/09/18 13:15:54;;;;;;;3.50;0.93;;;13.90;70.20;;;;;;5046253;28;20040;-70